sensor_id;sensor_type;location;lat;lon;timestamp;P1;durP1;ratioP1;P2;durP2;ratioP2
10174;SDS011;18221;38.704;0.152;2022-12-20T00:12:23;10.87;;;4.80;;
10174;SDS011;18221;38.704;0.152;2022-12-20T00:14:51;10.10;;;5.10;;
10174;SDS011;18221;38.704;0.152;2022-12-20T00:17:20;9.60;;;5.10;;
10174;SDS011;18221;38.704;0.152;2022-12-20T00:19:48;9.10;;;4.63;;
10174;SDS011;18221;38.704;0.152;2022-12-20T00:22:17;7.60;;;5.00;;
10174;SDS011;18221;38.704;0.152;2022-12-20T00:24:45;9.60;;;5.47;;
10174;SDS011;18221;38.704;0.152;2022-12-20T00:27:15;8.93;;;5.40;;
10174;SDS011;18221;38.704;0.152;2022-12-20T00:29:44;9.23;;;5.17;;
10174;SDS011;18221;38.704;0.152;2022-12-20T00:32:12;10.33;;;5.23;;
10174;SDS011;18221;38.704;0.152;2022-12-20T00:34:40;10.37;;;5.93;;
10174;SDS011;18221;38.704;0.152;2022-12-20T00:37:09;9.17;;;6.37;;
10174;SDS011;18221;38.704;0.152;2022-12-20T00:39:37;11.73;;;6.40;;
10174;SDS011;18221;38.704;0.152;2022-12-20T00:42:06;9.00;;;6.40;;
10174;SDS011;18221;38.704;0.152;2022-12-20T00:44:36;10.30;;;6.40;;
10174;SDS011;18221;38.704;0.152;2022-12-20T00:47:05;8.83;;;7.53;;
10174;SDS011;18221;38.704;0.152;2022-12-20T00:49:33;11.57;;;8.07;;
10174;SDS011;18221;38.704;0.152;2022-12-20T00:52:01;11.37;;;7.40;;
10174;SDS011;18221;38.704;0.152;2022-12-20T00:54:29;12.90;;;7.87;;
10174;SDS011;18221;38.704;0.152;2022-12-20T00:56:58;14.73;;;7.67;;
10174;SDS011;18221;38.704;0.152;2022-12-20T00:59:26;9.77;;;7.80;;
10174;SDS011;18221;38.704;0.152;2022-12-20T01:01:56;13.83;;;7.20;;
10174;SDS011;18221;38.704;0.152;2022-12-20T01:04:25;10.80;;;7.63;;
10174;SDS011;18221;38.704;0.152;2022-12-20T01:06:53;13.27;;;7.57;;
10174;SDS011;18221;38.704;0.152;2022-12-20T01:09:22;11.43;;;7.30;;
10174;SDS011;18221;38.704;0.152;2022-12-20T01:11:51;11.47;;;7.90;;
10174;SDS011;18221;38.704;0.152;2022-12-20T01:14:20;14.20;;;7.57;;
10174;SDS011;18221;38.704;0.152;2022-12-20T01:16:49;10.97;;;7.67;;
10174;SDS011;18221;38.704;0.152;2022-12-20T01:19:19;11.13;;;7.70;;
10174;SDS011;18221;38.704;0.152;2022-12-20T01:21:48;15.00;;;7.93;;
10174;SDS011;18221;38.704;0.152;2022-12-20T01:24:17;11.57;;;7.47;;
10174;SDS011;18221;38.704;0.152;2022-12-20T01:26:46;13.17;;;7.23;;
10174;SDS011;18221;38.704;0.152;2022-12-20T01:29:15;8.07;;;6.83;;
10174;SDS011;18221;38.704;0.152;2022-12-20T01:31:44;7.10;;;5.90;;
10174;SDS011;18221;38.704;0.152;2022-12-20T01:34:13;8.03;;;6.10;;
10174;SDS011;18221;38.704;0.152;2022-12-20T01:36:43;9.33;;;6.27;;
10174;SDS011;18221;38.704;0.152;2022-12-20T01:39:14;10.10;;;6.93;;
10174;SDS011;18221;38.704;0.152;2022-12-20T01:41:44;11.93;;;7.03;;
10174;SDS011;18221;38.704;0.152;2022-12-20T01:47:23;9.93;;;7.20;;
10174;SDS011;18221;38.704;0.152;2022-12-20T01:49:55;12.20;;;7.53;;
10174;SDS011;18221;38.704;0.152;2022-12-20T01:52:31;13.77;;;7.40;;
10174;SDS011;18221;38.704;0.152;2022-12-20T01:55:06;12.90;;;7.27;;
10174;SDS011;18221;38.704;0.152;2022-12-20T01:57:41;9.53;;;6.70;;
10174;SDS011;18221;38.704;0.152;2022-12-20T02:00:17;14.77;;;7.63;;
10174;SDS011;18221;38.704;0.152;2022-12-20T02:02:47;8.43;;;6.73;;
10174;SDS011;18221;38.704;0.152;2022-12-20T02:05:17;10.50;;;6.47;;
10174;SDS011;18221;38.704;0.152;2022-12-20T02:07:50;9.80;;;6.97;;
10174;SDS011;18221;38.704;0.152;2022-12-20T02:10:23;13.00;;;7.07;;
10174;SDS011;18221;38.704;0.152;2022-12-20T02:13:10;12.07;;;7.10;;
10174;SDS011;18221;38.704;0.152;2022-12-20T02:15:52;12.33;;;6.57;;
10174;SDS011;18221;38.704;0.152;2022-12-20T02:18:25;11.60;;;7.27;;
10174;SDS011;18221;38.704;0.152;2022-12-20T02:21:07;11.77;;;6.50;;
10174;SDS011;18221;38.704;0.152;2022-12-20T02:27:26;10.67;;;6.33;;
10174;SDS011;18221;38.704;0.152;2022-12-20T02:30:14;10.70;;;7.47;;
10174;SDS011;18221;38.704;0.152;2022-12-20T02:32:47;10.63;;;6.97;;
10174;SDS011;18221;38.704;0.152;2022-12-20T02:35:26;12.17;;;7.93;;
10174;SDS011;18221;38.704;0.152;2022-12-20T02:37:58;12.30;;;7.80;;
10174;SDS011;18221;38.704;0.152;2022-12-20T02:40:31;8.70;;;7.80;;
10174;SDS011;18221;38.704;0.152;2022-12-20T02:43:06;10.20;;;7.80;;
10174;SDS011;18221;38.704;0.152;2022-12-20T02:45:59;13.80;;;9.43;;
10174;SDS011;18221;38.704;0.152;2022-12-20T02:48:29;16.67;;;11.17;;
10174;SDS011;18221;38.704;0.152;2022-12-20T02:51:01;12.53;;;9.33;;
10174;SDS011;18221;38.704;0.152;2022-12-20T02:53:32;14.70;;;11.60;;
10174;SDS011;18221;38.704;0.152;2022-12-20T02:56:03;13.33;;;11.10;;
10174;SDS011;18221;38.704;0.152;2022-12-20T02:58:41;13.23;;;11.07;;
10174;SDS011;18221;38.704;0.152;2022-12-20T03:01:19;14.73;;;11.33;;
10174;SDS011;18221;38.704;0.152;2022-12-20T03:03:53;13.97;;;9.70;;
10174;SDS011;18221;38.704;0.152;2022-12-20T03:06:24;10.23;;;9.13;;
10174;SDS011;18221;38.704;0.152;2022-12-20T03:08:54;12.17;;;8.90;;
10174;SDS011;18221;38.704;0.152;2022-12-20T03:11:23;11.03;;;9.80;;
10174;SDS011;18221;38.704;0.152;2022-12-20T03:13:51;14.27;;;11.53;;
10174;SDS011;18221;38.704;0.152;2022-12-20T03:16:21;12.63;;;9.83;;
10174;SDS011;18221;38.704;0.152;2022-12-20T03:18:49;14.47;;;10.80;;
10174;SDS011;18221;38.704;0.152;2022-12-20T03:21:17;12.83;;;11.03;;
10174;SDS011;18221;38.704;0.152;2022-12-20T03:23:46;13.23;;;10.10;;
10174;SDS011;18221;38.704;0.152;2022-12-20T03:26:14;14.37;;;11.43;;
10174;SDS011;18221;38.704;0.152;2022-12-20T03:28:43;16.50;;;11.13;;
10174;SDS011;18221;38.704;0.152;2022-12-20T03:31:11;16.37;;;11.87;;
10174;SDS011;18221;38.704;0.152;2022-12-20T03:33:41;14.00;;;10.77;;
10174;SDS011;18221;38.704;0.152;2022-12-20T03:36:09;15.17;;;10.67;;
10174;SDS011;18221;38.704;0.152;2022-12-20T03:38:37;13.73;;;10.23;;
10174;SDS011;18221;38.704;0.152;2022-12-20T03:41:06;15.70;;;11.97;;
10174;SDS011;18221;38.704;0.152;2022-12-20T03:43:34;18.33;;;11.27;;
10174;SDS011;18221;38.704;0.152;2022-12-20T03:46:02;14.67;;;11.47;;
10174;SDS011;18221;38.704;0.152;2022-12-20T03:48:31;17.80;;;12.43;;
10174;SDS011;18221;38.704;0.152;2022-12-20T03:51:01;19.17;;;12.50;;
10174;SDS011;18221;38.704;0.152;2022-12-20T03:53:29;16.63;;;13.63;;
10174;SDS011;18221;38.704;0.152;2022-12-20T03:55:57;16.90;;;12.43;;
10174;SDS011;18221;38.704;0.152;2022-12-20T03:58:26;16.17;;;13.83;;
10174;SDS011;18221;38.704;0.152;2022-12-20T04:00:55;15.70;;;11.93;;
10174;SDS011;18221;38.704;0.152;2022-12-20T04:03:24;17.93;;;14.97;;
10174;SDS011;18221;38.704;0.152;2022-12-20T04:05:52;14.40;;;12.83;;
10174;SDS011;18221;38.704;0.152;2022-12-20T04:08:22;15.53;;;12.13;;
10174;SDS011;18221;38.704;0.152;2022-12-20T04:10:50;14.63;;;11.60;;
10174;SDS011;18221;38.704;0.152;2022-12-20T04:13:35;21.23;;;12.67;;
10174;SDS011;18221;38.704;0.152;2022-12-20T04:16:04;14.70;;;11.90;;
10174;SDS011;18221;38.704;0.152;2022-12-20T04:18:32;16.00;;;12.20;;
10174;SDS011;18221;38.704;0.152;2022-12-20T04:21:01;14.93;;;11.60;;
10174;SDS011;18221;38.704;0.152;2022-12-20T04:23:33;13.27;;;10.87;;
10174;SDS011;18221;38.704;0.152;2022-12-20T04:26:03;14.53;;;11.57;;
10174;SDS011;18221;38.704;0.152;2022-12-20T04:28:33;18.80;;;11.83;;
10174;SDS011;18221;38.704;0.152;2022-12-20T04:31:02;21.40;;;13.73;;
10174;SDS011;18221;38.704;0.152;2022-12-20T04:33:31;17.83;;;12.03;;
10174;SDS011;18221;38.704;0.152;2022-12-20T04:36:00;14.07;;;10.90;;
10174;SDS011;18221;38.704;0.152;2022-12-20T04:38:29;12.60;;;11.00;;
10174;SDS011;18221;38.704;0.152;2022-12-20T04:40:59;14.40;;;11.70;;
10174;SDS011;18221;38.704;0.152;2022-12-20T04:43:27;15.77;;;10.70;;
10174;SDS011;18221;38.704;0.152;2022-12-20T04:45:56;15.80;;;11.07;;
10174;SDS011;18221;38.704;0.152;2022-12-20T04:48:25;17.03;;;11.37;;
10174;SDS011;18221;38.704;0.152;2022-12-20T04:50:54;14.80;;;10.53;;
10174;SDS011;18221;38.704;0.152;2022-12-20T04:53:23;14.27;;;10.90;;
10174;SDS011;18221;38.704;0.152;2022-12-20T04:56:10;13.80;;;10.50;;
10174;SDS011;18221;38.704;0.152;2022-12-20T04:58:38;15.13;;;10.80;;
10174;SDS011;18221;38.704;0.152;2022-12-20T05:01:07;15.47;;;10.93;;
10174;SDS011;18221;38.704;0.152;2022-12-20T05:03:36;16.17;;;11.93;;
10174;SDS011;18221;38.704;0.152;2022-12-20T05:06:05;17.87;;;11.53;;
10174;SDS011;18221;38.704;0.152;2022-12-20T05:08:34;12.73;;;10.27;;
10174;SDS011;18221;38.704;0.152;2022-12-20T05:11:04;17.07;;;10.80;;
10174;SDS011;18221;38.704;0.152;2022-12-20T05:13:34;15.97;;;9.80;;
10174;SDS011;18221;38.704;0.152;2022-12-20T05:16:03;15.77;;;11.80;;
10174;SDS011;18221;38.704;0.152;2022-12-20T05:18:32;15.17;;;10.57;;
10174;SDS011;18221;38.704;0.152;2022-12-20T05:21:00;15.90;;;10.37;;
10174;SDS011;18221;38.704;0.152;2022-12-20T05:23:46;16.67;;;11.10;;
10174;SDS011;18221;38.704;0.152;2022-12-20T05:26:34;16.23;;;10.90;;
10174;SDS011;18221;38.704;0.152;2022-12-20T05:29:06;13.47;;;9.77;;
10174;SDS011;18221;38.704;0.152;2022-12-20T05:31:34;16.73;;;10.97;;
10174;SDS011;18221;38.704;0.152;2022-12-20T05:34:02;15.37;;;9.50;;
10174;SDS011;18221;38.704;0.152;2022-12-20T05:36:31;13.57;;;9.40;;
10174;SDS011;18221;38.704;0.152;2022-12-20T05:38:59;15.97;;;9.47;;
10174;SDS011;18221;38.704;0.152;2022-12-20T05:41:27;13.70;;;9.23;;
10174;SDS011;18221;38.704;0.152;2022-12-20T05:43:56;16.57;;;8.73;;
10174;SDS011;18221;38.704;0.152;2022-12-20T05:46:26;14.33;;;9.33;;
10174;SDS011;18221;38.704;0.152;2022-12-20T05:48:54;14.17;;;9.50;;
10174;SDS011;18221;38.704;0.152;2022-12-20T05:51:23;12.23;;;8.83;;
10174;SDS011;18221;38.704;0.152;2022-12-20T05:53:51;12.37;;;9.23;;
10174;SDS011;18221;38.704;0.152;2022-12-20T05:56:20;13.07;;;9.20;;
10174;SDS011;18221;38.704;0.152;2022-12-20T05:58:48;10.30;;;8.67;;
10174;SDS011;18221;38.704;0.152;2022-12-20T06:01:16;12.90;;;8.77;;
10174;SDS011;18221;38.704;0.152;2022-12-20T06:03:46;12.63;;;9.23;;
10174;SDS011;18221;38.704;0.152;2022-12-20T06:06:15;14.93;;;8.90;;
10174;SDS011;18221;38.704;0.152;2022-12-20T06:08:44;11.37;;;8.47;;
10174;SDS011;18221;38.704;0.152;2022-12-20T06:11:12;12.17;;;8.00;;
10174;SDS011;18221;38.704;0.152;2022-12-20T06:13:40;11.70;;;8.50;;
10174;SDS011;18221;38.704;0.152;2022-12-20T06:16:09;14.90;;;7.80;;
10174;SDS011;18221;38.704;0.152;2022-12-20T06:18:37;12.03;;;7.97;;
10174;SDS011;18221;38.704;0.152;2022-12-20T06:21:08;10.57;;;8.80;;
10174;SDS011;18221;38.704;0.152;2022-12-20T06:23:36;14.17;;;8.40;;
10174;SDS011;18221;38.704;0.152;2022-12-20T06:26:04;12.23;;;8.93;;
10174;SDS011;18221;38.704;0.152;2022-12-20T06:28:34;12.20;;;7.77;;
10174;SDS011;18221;38.704;0.152;2022-12-20T06:31:07;12.77;;;8.63;;
10174;SDS011;18221;38.704;0.152;2022-12-20T06:33:37;17.10;;;9.47;;
10174;SDS011;18221;38.704;0.152;2022-12-20T06:36:05;13.30;;;8.90;;
10174;SDS011;18221;38.704;0.152;2022-12-20T06:38:35;11.77;;;8.80;;
10174;SDS011;18221;38.704;0.152;2022-12-20T06:41:04;15.80;;;9.30;;
10174;SDS011;18221;38.704;0.152;2022-12-20T06:43:32;13.03;;;8.77;;
10174;SDS011;18221;38.704;0.152;2022-12-20T06:46:00;11.03;;;8.40;;
10174;SDS011;18221;38.704;0.152;2022-12-20T06:48:29;12.17;;;7.90;;
10174;SDS011;18221;38.704;0.152;2022-12-20T06:50:57;12.57;;;8.23;;
10174;SDS011;18221;38.704;0.152;2022-12-20T06:53:27;9.33;;;7.77;;
10174;SDS011;18221;38.704;0.152;2022-12-20T06:55:55;13.83;;;8.00;;
10174;SDS011;18221;38.704;0.152;2022-12-20T06:58:23;15.37;;;8.20;;
10174;SDS011;18221;38.704;0.152;2022-12-20T07:00:52;13.27;;;7.63;;
10174;SDS011;18221;38.704;0.152;2022-12-20T07:03:21;8.67;;;7.20;;
10174;SDS011;18221;38.704;0.152;2022-12-20T07:05:50;9.47;;;6.97;;
10174;SDS011;18221;38.704;0.152;2022-12-20T07:08:18;9.57;;;7.77;;
10174;SDS011;18221;38.704;0.152;2022-12-20T07:10:48;7.40;;;5.83;;
10174;SDS011;18221;38.704;0.152;2022-12-20T07:13:18;8.93;;;6.50;;
10174;SDS011;18221;38.704;0.152;2022-12-20T07:15:47;7.60;;;5.97;;
10174;SDS011;18221;38.704;0.152;2022-12-20T07:18:23;9.17;;;6.10;;
10174;SDS011;18221;38.704;0.152;2022-12-20T07:20:51;9.07;;;5.77;;
10174;SDS011;18221;38.704;0.152;2022-12-20T07:23:19;7.80;;;5.20;;
10174;SDS011;18221;38.704;0.152;2022-12-20T07:25:53;8.67;;;5.70;;
10174;SDS011;18221;38.704;0.152;2022-12-20T07:28:22;6.50;;;4.60;;
10174;SDS011;18221;38.704;0.152;2022-12-20T07:30:51;7.77;;;5.33;;
10174;SDS011;18221;38.704;0.152;2022-12-20T07:33:20;9.53;;;5.03;;
10174;SDS011;18221;38.704;0.152;2022-12-20T07:35:48;6.63;;;4.87;;
10174;SDS011;18221;38.704;0.152;2022-12-20T07:38:17;11.93;;;5.23;;
10174;SDS011;18221;38.704;0.152;2022-12-20T07:40:45;7.87;;;5.03;;
10174;SDS011;18221;38.704;0.152;2022-12-20T07:43:15;6.90;;;4.70;;
10174;SDS011;18221;38.704;0.152;2022-12-20T07:45:43;7.93;;;4.80;;
10174;SDS011;18221;38.704;0.152;2022-12-20T07:48:11;7.27;;;4.70;;
10174;SDS011;18221;38.704;0.152;2022-12-20T07:50:40;6.17;;;4.30;;
10174;SDS011;18221;38.704;0.152;2022-12-20T07:53:09;6.47;;;4.57;;
10174;SDS011;18221;38.704;0.152;2022-12-20T07:55:38;5.63;;;4.67;;
10174;SDS011;18221;38.704;0.152;2022-12-20T07:58:07;6.33;;;4.40;;
10174;SDS011;18221;38.704;0.152;2022-12-20T08:00:42;6.70;;;4.30;;
10174;SDS011;18221;38.704;0.152;2022-12-20T08:03:13;6.13;;;4.50;;
10174;SDS011;18221;38.704;0.152;2022-12-20T08:05:47;8.07;;;4.70;;
10174;SDS011;18221;38.704;0.152;2022-12-20T08:08:21;7.13;;;4.30;;
10174;SDS011;18221;38.704;0.152;2022-12-20T08:10:50;6.83;;;4.37;;
10174;SDS011;18221;38.704;0.152;2022-12-20T08:13:18;5.90;;;4.13;;
10174;SDS011;18221;38.704;0.152;2022-12-20T08:15:48;5.00;;;3.83;;
10174;SDS011;18221;38.704;0.152;2022-12-20T08:18:17;6.03;;;4.13;;
10174;SDS011;18221;38.704;0.152;2022-12-20T08:20:45;5.97;;;3.90;;
10174;SDS011;18221;38.704;0.152;2022-12-20T08:23:14;4.20;;;3.80;;
10174;SDS011;18221;38.704;0.152;2022-12-20T08:25:42;5.23;;;3.47;;
10174;SDS011;18221;38.704;0.152;2022-12-20T08:28:10;5.90;;;3.30;;
10174;SDS011;18221;38.704;0.152;2022-12-20T08:30:38;6.40;;;3.80;;
10174;SDS011;18221;38.704;0.152;2022-12-20T08:33:09;4.60;;;3.83;;
10174;SDS011;18221;38.704;0.152;2022-12-20T08:35:37;6.13;;;3.40;;
10174;SDS011;18221;38.704;0.152;2022-12-20T08:38:06;4.13;;;3.77;;
10174;SDS011;18221;38.704;0.152;2022-12-20T08:40:34;6.43;;;4.03;;
10174;SDS011;18221;38.704;0.152;2022-12-20T08:43:03;3.73;;;3.33;;
10174;SDS011;18221;38.704;0.152;2022-12-20T08:45:31;4.43;;;3.60;;
10174;SDS011;18221;38.704;0.152;2022-12-20T08:47:59;6.37;;;3.57;;
10174;SDS011;18221;38.704;0.152;2022-12-20T08:50:29;4.50;;;3.53;;
10174;SDS011;18221;38.704;0.152;2022-12-20T08:52:57;3.97;;;3.47;;
10174;SDS011;18221;38.704;0.152;2022-12-20T08:55:26;4.97;;;3.70;;
10174;SDS011;18221;38.704;0.152;2022-12-20T08:57:54;4.07;;;3.40;;
10174;SDS011;18221;38.704;0.152;2022-12-20T09:00:22;4.30;;;3.60;;
10174;SDS011;18221;38.704;0.152;2022-12-20T09:02:51;8.67;;;4.30;;
10174;SDS011;18221;38.704;0.152;2022-12-20T09:05:20;4.67;;;3.87;;
10174;SDS011;18221;38.704;0.152;2022-12-20T09:07:50;6.17;;;3.63;;
10174;SDS011;18221;38.704;0.152;2022-12-20T09:10:19;5.53;;;3.83;;
10174;SDS011;18221;38.704;0.152;2022-12-20T09:12:47;4.33;;;3.87;;
10174;SDS011;18221;38.704;0.152;2022-12-20T09:15:15;6.93;;;3.97;;
10174;SDS011;18221;38.704;0.152;2022-12-20T09:17:45;4.53;;;3.17;;
10174;SDS011;18221;38.704;0.152;2022-12-20T09:20:16;5.73;;;3.70;;
10174;SDS011;18221;38.704;0.152;2022-12-20T09:22:45;5.67;;;3.40;;
10174;SDS011;18221;38.704;0.152;2022-12-20T09:25:15;3.67;;;3.03;;
10174;SDS011;18221;38.704;0.152;2022-12-20T09:27:44;7.77;;;3.90;;
10174;SDS011;18221;38.704;0.152;2022-12-20T09:30:12;4.97;;;3.33;;
10174;SDS011;18221;38.704;0.152;2022-12-20T09:32:41;6.10;;;3.27;;
10174;SDS011;18221;38.704;0.152;2022-12-20T09:35:09;4.40;;;3.50;;
10174;SDS011;18221;38.704;0.152;2022-12-20T09:37:37;5.10;;;3.43;;
10174;SDS011;18221;38.704;0.152;2022-12-20T09:40:06;6.03;;;3.83;;
10174;SDS011;18221;38.704;0.152;2022-12-20T09:42:44;4.77;;;3.47;;
10174;SDS011;18221;38.704;0.152;2022-12-20T09:45:24;4.23;;;3.80;;
10174;SDS011;18221;38.704;0.152;2022-12-20T09:47:58;5.07;;;3.70;;
10174;SDS011;18221;38.704;0.152;2022-12-20T09:50:40;7.57;;;3.57;;
10174;SDS011;18221;38.704;0.152;2022-12-20T09:53:21;5.00;;;3.73;;
10174;SDS011;18221;38.704;0.152;2022-12-20T09:56:04;7.70;;;3.80;;
10174;SDS011;18221;38.704;0.152;2022-12-20T09:58:44;7.37;;;3.73;;
10174;SDS011;18221;38.704;0.152;2022-12-20T10:01:26;4.83;;;3.70;;
10174;SDS011;18221;38.704;0.152;2022-12-20T10:03:58;7.00;;;4.13;;
10174;SDS011;18221;38.704;0.152;2022-12-20T10:06:41;5.27;;;3.97;;
10174;SDS011;18221;38.704;0.152;2022-12-20T10:09:30;7.87;;;4.60;;
10174;SDS011;18221;38.704;0.152;2022-12-20T10:12:21;6.97;;;4.50;;
10174;SDS011;18221;38.704;0.152;2022-12-20T10:15:12;8.47;;;5.00;;
10174;SDS011;18221;38.704;0.152;2022-12-20T10:18:02;7.80;;;4.87;;
10174;SDS011;18221;38.704;0.152;2022-12-20T10:20:53;7.20;;;4.50;;
10174;SDS011;18221;38.704;0.152;2022-12-20T10:23:32;6.80;;;3.90;;
10174;SDS011;18221;38.704;0.152;2022-12-20T10:26:09;4.67;;;3.70;;
10174;SDS011;18221;38.704;0.152;2022-12-20T10:28:39;8.33;;;4.30;;
10174;SDS011;18221;38.704;0.152;2022-12-20T10:31:11;6.87;;;4.70;;
10174;SDS011;18221;38.704;0.152;2022-12-20T10:33:42;5.40;;;4.90;;
10174;SDS011;18221;38.704;0.152;2022-12-20T10:36:21;10.67;;;5.83;;
10174;SDS011;18221;38.704;0.152;2022-12-20T10:38:52;8.47;;;5.53;;
10174;SDS011;18221;38.704;0.152;2022-12-20T10:41:23;10.37;;;5.70;;
10174;SDS011;18221;38.704;0.152;2022-12-20T10:43:55;9.30;;;5.80;;
10174;SDS011;18221;38.704;0.152;2022-12-20T10:46:36;11.67;;;5.83;;
10174;SDS011;18221;38.704;0.152;2022-12-20T10:51:57;7.97;;;5.50;;
10174;SDS011;18221;38.704;0.152;2022-12-20T10:54:29;7.83;;;5.50;;
10174;SDS011;18221;38.704;0.152;2022-12-20T10:57:02;8.07;;;5.13;;
10174;SDS011;18221;38.704;0.152;2022-12-20T10:59:48;8.60;;;5.60;;
10174;SDS011;18221;38.704;0.152;2022-12-20T11:02:27;7.43;;;5.37;;
10174;SDS011;18221;38.704;0.152;2022-12-20T11:04:59;7.97;;;5.20;;
10174;SDS011;18221;38.704;0.152;2022-12-20T11:07:31;10.10;;;5.43;;
10174;SDS011;18221;38.704;0.152;2022-12-20T11:10:01;10.97;;;5.97;;
10174;SDS011;18221;38.704;0.152;2022-12-20T11:12:51;7.13;;;6.00;;
10174;SDS011;18221;38.704;0.152;2022-12-20T11:15:23;7.77;;;6.03;;
10174;SDS011;18221;38.704;0.152;2022-12-20T11:17:55;11.80;;;6.60;;
10174;SDS011;18221;38.704;0.152;2022-12-20T11:20:32;10.30;;;7.60;;
10174;SDS011;18221;38.704;0.152;2022-12-20T11:23:12;10.27;;;6.93;;
10174;SDS011;18221;38.704;0.152;2022-12-20T11:25:57;15.67;;;7.93;;
10174;SDS011;18221;38.704;0.152;2022-12-20T11:28:49;10.67;;;7.50;;
10174;SDS011;18221;38.704;0.152;2022-12-20T11:31:38;12.00;;;7.00;;
10174;SDS011;18221;38.704;0.152;2022-12-20T11:34:28;15.30;;;9.57;;
10174;SDS011;18221;38.704;0.152;2022-12-20T11:37:16;16.03;;;9.63;;
10174;SDS011;18221;38.704;0.152;2022-12-20T11:39:59;16.83;;;9.03;;
10174;SDS011;18221;38.704;0.152;2022-12-20T11:42:52;15.77;;;8.47;;
10174;SDS011;18221;38.704;0.152;2022-12-20T11:45:43;15.47;;;8.23;;
10174;SDS011;18221;38.704;0.152;2022-12-20T11:48:40;13.37;;;9.37;;
10174;SDS011;18221;38.704;0.152;2022-12-20T11:51:33;10.73;;;9.27;;
10174;SDS011;18221;38.704;0.152;2022-12-20T11:54:11;13.77;;;8.63;;
10174;SDS011;18221;38.704;0.152;2022-12-20T11:56:49;13.20;;;10.10;;
10174;SDS011;18221;38.704;0.152;2022-12-20T11:59:24;14.97;;;10.23;;
10174;SDS011;18221;38.704;0.152;2022-12-20T12:02:08;16.37;;;10.53;;
10174;SDS011;18221;38.704;0.152;2022-12-20T12:04:40;13.70;;;10.07;;
10174;SDS011;18221;38.704;0.152;2022-12-20T12:07:18;17.07;;;11.87;;
10174;SDS011;18221;38.704;0.152;2022-12-20T12:09:53;15.57;;;9.80;;
10174;SDS011;18221;38.704;0.152;2022-12-20T12:12:27;13.63;;;10.07;;
10174;SDS011;18221;38.704;0.152;2022-12-20T12:15:04;19.17;;;11.47;;
10174;SDS011;18221;38.704;0.152;2022-12-20T12:17:56;18.63;;;11.43;;
10174;SDS011;18221;38.704;0.152;2022-12-20T12:20:34;15.73;;;10.60;;
10174;SDS011;18221;38.704;0.152;2022-12-20T12:23:17;16.07;;;11.87;;
10174;SDS011;18221;38.704;0.152;2022-12-20T12:25:52;17.43;;;11.10;;
10174;SDS011;18221;38.704;0.152;2022-12-20T12:28:20;16.23;;;12.40;;
10174;SDS011;18221;38.704;0.152;2022-12-20T12:30:51;20.23;;;13.87;;
10174;SDS011;18221;38.704;0.152;2022-12-20T12:33:27;19.23;;;13.53;;
10174;SDS011;18221;38.704;0.152;2022-12-20T12:36:15;18.37;;;13.53;;
10174;SDS011;18221;38.704;0.152;2022-12-20T12:39:25;17.70;;;13.97;;
10174;SDS011;18221;38.704;0.152;2022-12-20T12:45:40;22.17;;;15.67;;
10174;SDS011;18221;38.704;0.152;2022-12-20T12:48:15;18.57;;;14.87;;
10174;SDS011;18221;38.704;0.152;2022-12-20T12:50:51;22.33;;;15.60;;
10174;SDS011;18221;38.704;0.152;2022-12-20T12:53:25;21.33;;;14.63;;
10174;SDS011;18221;38.704;0.152;2022-12-20T12:59:18;19.30;;;13.90;;
10174;SDS011;18221;38.704;0.152;2022-12-20T13:02:26;19.97;;;14.70;;
10174;SDS011;18221;38.704;0.152;2022-12-20T13:05:33;22.40;;;17.10;;
10174;SDS011;18221;38.704;0.152;2022-12-20T13:08:02;19.70;;;15.47;;
10174;SDS011;18221;38.704;0.152;2022-12-20T13:13:40;20.33;;;14.80;;
10174;SDS011;18221;38.704;0.152;2022-12-20T13:16:09;18.80;;;15.97;;
10174;SDS011;18221;38.704;0.152;2022-12-20T13:18:58;20.17;;;16.37;;
10174;SDS011;18221;38.704;0.152;2022-12-20T13:21:39;20.67;;;16.70;;
10174;SDS011;18221;38.704;0.152;2022-12-20T13:39:03;23.17;;;15.50;;
10174;SDS011;18221;38.704;0.152;2022-12-20T13:42:13;22.00;;;15.13;;
10174;SDS011;18221;38.704;0.152;2022-12-20T13:44:52;16.90;;;12.83;;
10174;SDS011;18221;38.704;0.152;2022-12-20T13:47:33;16.50;;;13.17;;
10174;SDS011;18221;38.704;0.152;2022-12-20T13:50:23;20.03;;;14.97;;
10174;SDS011;18221;38.704;0.152;2022-12-20T13:53:00;19.63;;;14.63;;
10174;SDS011;18221;38.704;0.152;2022-12-20T13:55:32;19.10;;;15.03;;
10174;SDS011;18221;38.704;0.152;2022-12-20T13:58:09;19.57;;;14.07;;
10174;SDS011;18221;38.704;0.152;2022-12-20T14:00:46;16.73;;;14.20;;
10174;SDS011;18221;38.704;0.152;2022-12-20T14:03:20;20.47;;;13.47;;
10174;SDS011;18221;38.704;0.152;2022-12-20T14:05:54;25.03;;;16.80;;
10174;SDS011;18221;38.704;0.152;2022-12-20T14:08:28;23.37;;;17.07;;
10174;SDS011;18221;38.704;0.152;2022-12-20T14:11:06;25.23;;;18.50;;
10174;SDS011;18221;38.704;0.152;2022-12-20T14:13:39;22.90;;;17.30;;
10174;SDS011;18221;38.704;0.152;2022-12-20T14:16:09;25.00;;;15.90;;
10174;SDS011;18221;38.704;0.152;2022-12-20T14:18:47;24.80;;;18.83;;
10174;SDS011;18221;38.704;0.152;2022-12-20T14:21:16;26.07;;;19.30;;
10174;SDS011;18221;38.704;0.152;2022-12-20T14:23:47;25.93;;;18.47;;
10174;SDS011;18221;38.704;0.152;2022-12-20T14:26:18;22.07;;;17.07;;
10174;SDS011;18221;38.704;0.152;2022-12-20T14:28:52;22.13;;;18.00;;
10174;SDS011;18221;38.704;0.152;2022-12-20T14:31:24;23.40;;;17.70;;
10174;SDS011;18221;38.704;0.152;2022-12-20T14:34:03;28.03;;;20.17;;
10174;SDS011;18221;38.704;0.152;2022-12-20T14:36:38;26.50;;;18.13;;
10174;SDS011;18221;38.704;0.152;2022-12-20T14:42:01;27.97;;;22.33;;
10174;SDS011;18221;38.704;0.152;2022-12-20T14:44:39;29.80;;;22.17;;
10174;SDS011;18221;38.704;0.152;2022-12-20T14:47:12;30.40;;;21.13;;
10174;SDS011;18221;38.704;0.152;2022-12-20T14:49:48;29.87;;;22.60;;
10174;SDS011;18221;38.704;0.152;2022-12-20T14:52:23;29.13;;;23.07;;
10174;SDS011;18221;38.704;0.152;2022-12-20T14:55:01;29.33;;;21.37;;
10174;SDS011;18221;38.704;0.152;2022-12-20T14:57:38;28.67;;;22.40;;
10174;SDS011;18221;38.704;0.152;2022-12-20T15:00:17;27.80;;;21.03;;
10174;SDS011;18221;38.704;0.152;2022-12-20T15:02:50;30.17;;;22.87;;
10174;SDS011;18221;38.704;0.152;2022-12-20T15:08:22;28.70;;;22.33;;
10174;SDS011;18221;38.704;0.152;2022-12-20T15:10:54;28.63;;;22.60;;
10174;SDS011;18221;38.704;0.152;2022-12-20T15:13:28;29.00;;;22.43;;
10174;SDS011;18221;38.704;0.152;2022-12-20T15:16:00;24.37;;;21.03;;
10174;SDS011;18221;38.704;0.152;2022-12-20T15:18:30;25.17;;;19.43;;
10174;SDS011;18221;38.704;0.152;2022-12-20T15:21:04;30.70;;;24.43;;
10174;SDS011;18221;38.704;0.152;2022-12-20T15:23:39;27.13;;;20.83;;
10174;SDS011;18221;38.704;0.152;2022-12-20T15:26:13;25.50;;;20.23;;
10174;SDS011;18221;38.704;0.152;2022-12-20T15:28:44;28.30;;;21.80;;
10174;SDS011;18221;38.704;0.152;2022-12-20T15:31:13;25.77;;;20.37;;
10174;SDS011;18221;38.704;0.152;2022-12-20T15:33:44;29.10;;;21.33;;
10174;SDS011;18221;38.704;0.152;2022-12-20T15:36:15;26.73;;;19.90;;
10174;SDS011;18221;38.704;0.152;2022-12-20T15:38:46;28.20;;;21.17;;
10174;SDS011;18221;38.704;0.152;2022-12-20T15:41:16;27.43;;;21.20;;
10174;SDS011;18221;38.704;0.152;2022-12-20T15:43:50;28.47;;;22.07;;
10174;SDS011;18221;38.704;0.152;2022-12-20T15:46:22;26.07;;;20.90;;
10174;SDS011;18221;38.704;0.152;2022-12-20T15:48:51;25.83;;;20.17;;
10174;SDS011;18221;38.704;0.152;2022-12-20T15:51:23;23.90;;;18.10;;
10174;SDS011;18221;38.704;0.152;2022-12-20T15:53:56;27.60;;;19.37;;
10174;SDS011;18221;38.704;0.152;2022-12-20T15:56:27;26.60;;;20.97;;
10174;SDS011;18221;38.704;0.152;2022-12-20T15:58:56;23.60;;;18.23;;